createdAt,value
2023-05-25T00:01:45.270Z,4294967296.00
2023-05-25T00:03:45.640Z,4294967296.00
2023-05-25T00:05:45.951Z,4294967296.00
2023-05-25T00:07:46.252Z,4294967296.00
2023-05-25T00:09:46.632Z,4294967296.00
2023-05-25T00:11:46.919Z,4294967296.00
2023-05-25T00:13:47.199Z,4294967296.00
2023-05-25T00:15:47.705Z,4294967296.00
2023-05-25T00:17:47.974Z,4294967296.00
2023-05-25T00:19:48.484Z,4294967296.00
2023-05-25T00:21:48.916Z,4294967296.00
2023-05-25T00:23:49.250Z,4294967296.00
2023-05-25T00:25:49.640Z,4294967296.00
2023-05-25T00:27:49.900Z,4294967296.00
2023-05-25T00:29:55.236Z,4294967296.00
2023-05-25T00:31:55.632Z,4294967296.00
2023-05-25T00:33:56.135Z,4294967296.00
2023-05-25T00:35:56.553Z,4294967296.00
2023-05-25T00:37:57.043Z,4294967296.00
2023-05-25T00:39:58.388Z,4294967296.00
2023-05-25T00:41:58.734Z,4294967296.00
2023-05-25T00:43:58.933Z,4294967296.00
2023-05-25T00:45:59.222Z,4294967296.00
2023-05-25T00:47:59.782Z,4294967296.00
2023-05-25T00:50:00.551Z,4294967296.00
2023-05-25T00:52:01.095Z,4294967296.00
2023-05-25T00:54:01.375Z,4294967296.00
2023-05-25T00:56:01.715Z,4294967296.00
2023-05-25T00:58:01.978Z,4294967296.00
2023-05-25T01:00:02.276Z,4294967296.00
2023-05-25T01:02:02.561Z,4294967296.00
2023-05-25T01:04:03.132Z,4294967296.00
2023-05-25T01:06:03.896Z,4294967296.00
2023-05-25T01:08:04.142Z,4294967296.00
2023-05-25T01:10:04.409Z,4294967296.00
2023-05-25T01:12:04.738Z,4294967296.00
2023-05-25T01:14:05.185Z,4294967296.00
2023-05-25T01:16:05.456Z,4294967296.00
2023-05-25T01:18:05.750Z,4294967296.00
2023-05-25T01:20:11.342Z,4294967296.00
2023-05-25T01:22:11.186Z,4294967296.00
2023-05-25T01:24:11.445Z,4294967296.00
2023-05-25T01:26:11.699Z,4294967296.00
2023-05-25T01:28:11.968Z,4294967296.00
2023-05-25T01:30:12.359Z,4294967296.00
2023-05-25T01:32:12.710Z,4294967296.00
2023-05-25T01:34:13.054Z,4294967296.00
2023-05-25T01:36:13.403Z,4294967296.00
2023-05-25T01:38:13.616Z,4294967296.00
2023-05-25T01:40:13.917Z,4294967296.00
2023-05-25T01:42:14.296Z,4294967296.00
2023-05-25T01:44:14.555Z,4294967296.00
2023-05-25T01:46:14.941Z,4294967296.00
2023-05-25T01:48:15.249Z,4294967296.00
2023-05-25T01:50:15.634Z,4294967296.00
2023-05-25T01:52:15.973Z,4294967296.00
2023-05-25T01:54:16.267Z,4294967296.00
2023-05-25T01:56:16.565Z,4294967296.00
2023-05-25T01:58:16.852Z,4294967296.00
2023-05-25T02:00:17.114Z,4294967296.00
2023-05-25T02:02:17.443Z,4294967296.00
2023-05-25T02:04:17.761Z,4294967296.00
2023-05-25T02:06:18.090Z,4294967296.00
2023-05-25T02:08:18.563Z,4294967296.00
2023-05-25T02:10:18.828Z,4294967296.00
2023-05-25T02:12:19.101Z,4294967296.00
2023-05-25T02:14:19.380Z,4294967296.00
2023-05-25T02:16:19.763Z,4294967296.00
2023-05-25T02:18:20.008Z,4294967296.00
2023-05-25T02:20:20.313Z,4294967296.00
2023-05-25T02:22:20.616Z,4294967296.00
2023-05-25T02:24:20.905Z,4294967296.00
2023-05-25T02:26:21.180Z,4294967296.00
2023-05-25T02:28:21.493Z,4294967296.00
2023-05-25T02:30:21.734Z,4294967296.00
2023-05-25T02:32:22.000Z,4294967296.00
2023-05-25T02:34:22.297Z,4294967296.00
2023-05-25T02:36:22.581Z,4294967296.00
2023-05-25T02:38:22.923Z,4294967296.00
2023-05-25T02:40:23.155Z,4294967296.00
2023-05-25T02:42:23.471Z,4294967296.00
2023-05-25T02:44:23.702Z,4294967296.00
2023-05-25T02:46:24.087Z,4294967296.00
2023-05-25T02:48:24.426Z,4294967296.00
2023-05-25T02:50:24.670Z,4294967296.00
2023-05-25T02:52:24.978Z,4294967296.00
2023-05-25T02:54:25.240Z,4294967296.00
2023-05-25T02:56:25.494Z,4294967296.00
2023-05-25T02:58:25.788Z,4294967296.00
2023-05-25T03:00:26.060Z,4294967296.00
2023-05-25T03:02:26.393Z,4294967296.00
2023-05-25T03:04:26.671Z,4294967296.00
2023-05-25T03:06:26.916Z,4294967296.00
2023-05-25T03:08:27.203Z,4294967296.00
2023-05-25T03:10:27.482Z,4294967296.00
2023-05-25T03:12:27.753Z,4294967296.00
2023-05-25T03:14:28.045Z,4294967296.00
2023-05-25T03:16:28.447Z,4294967296.00
2023-05-25T03:18:28.730Z,4294967296.00
2023-05-25T03:20:29.114Z,4294967296.00
2023-05-25T03:22:29.388Z,4294967296.00
2023-05-25T03:24:29.743Z,4294967296.00
2023-05-25T03:26:30.028Z,4294967296.00
2023-05-25T03:28:30.427Z,4294967296.00
2023-05-25T03:30:30.661Z,4294967296.00
2023-05-25T03:32:31.189Z,4294967296.00
2023-05-25T03:34:31.478Z,4294967296.00
2023-05-25T03:36:31.809Z,4294967296.00
2023-05-25T03:38:32.028Z,4294967296.00
2023-05-25T03:40:32.292Z,4294967296.00
2023-05-25T03:42:32.572Z,4294967296.00
2023-05-25T03:44:32.832Z,4294967296.00
2023-05-25T03:46:33.144Z,4294967296.00
2023-05-25T03:48:33.517Z,4294967296.00
2023-05-25T03:50:33.747Z,4294967296.00
2023-05-25T03:52:34.056Z,4294967296.00
2023-05-25T03:54:34.264Z,4294967296.00
2023-05-25T03:56:34.709Z,4294967296.00
2023-05-25T03:58:34.989Z,4294967296.00
2023-05-25T04:00:35.288Z,4294967296.00
2023-05-25T04:02:35.577Z,4294967296.00
2023-05-25T04:04:35.929Z,4294967296.00
2023-05-25T04:06:36.183Z,4294967296.00
2023-05-25T04:08:36.436Z,4294967296.00
2023-05-25T04:10:36.685Z,4294967296.00
2023-05-25T04:12:37.048Z,4294967296.00
2023-05-25T04:14:37.259Z,4294967296.00
2023-05-25T04:16:37.555Z,4294967296.00
2023-05-25T04:18:37.826Z,4294967296.00
2023-05-25T04:20:38.344Z,4294967296.00
2023-05-25T04:22:38.871Z,4294967296.00
2023-05-25T04:24:39.163Z,4294967296.00
2023-05-25T04:26:39.463Z,4294967296.00
2023-05-25T04:28:40.029Z,4294967296.00
2023-05-25T04:30:40.467Z,4294967296.00
2023-05-25T04:32:42.220Z,4294967296.00
2023-05-25T04:34:43.642Z,4294967296.00
2023-05-25T04:36:44.000Z,4294967296.00
2023-05-25T04:38:44.222Z,4294967296.00
2023-05-25T04:40:44.609Z,4294967296.00
2023-05-25T04:42:44.853Z,4294967296.00
2023-05-25T04:44:45.172Z,4294967296.00
2023-05-25T04:46:45.410Z,4294967296.00
2023-05-25T04:48:45.703Z,4294967296.00
2023-05-25T04:50:46.001Z,4294967296.00
2023-05-25T04:52:46.305Z,4294967296.00
2023-05-25T04:54:46.562Z,4294967296.00
2023-05-25T04:56:47.084Z,4294967296.00
2023-05-25T04:58:47.324Z,4294967296.00
2023-05-25T05:00:47.681Z,4294967296.00
2023-05-25T05:02:48.230Z,4294967296.00
2023-05-25T05:04:48.635Z,4294967296.00
2023-05-25T05:06:48.891Z,4294967296.00
2023-05-25T05:08:49.157Z,4294967296.00
2023-05-25T05:10:49.456Z,4294967296.00
2023-05-25T05:12:50.220Z,4294967296.00
2023-05-25T05:14:51.168Z,4294967296.00
2023-05-25T05:16:51.560Z,4294967296.00
2023-05-25T05:18:51.861Z,4294967296.00
2023-05-25T05:20:52.390Z,4294967296.00
2023-05-25T05:22:52.605Z,4294967296.00
2023-05-25T05:24:52.914Z,4294967296.00
2023-05-25T05:26:57.802Z,4294967296.00
2023-05-25T05:28:58.495Z,4294967296.00
2023-05-25T05:30:58.813Z,4294967296.00
2023-05-25T05:32:59.313Z,4294967296.00
2023-05-25T05:34:59.776Z,4294967296.00
2023-05-25T05:37:00.093Z,4294967296.00
2023-05-25T05:39:00.470Z,4294967296.00
2023-05-25T05:41:00.713Z,4294967296.00
2023-05-25T05:43:01.079Z,4294967296.00
2023-05-25T05:45:01.384Z,4294967296.00
2023-05-25T05:47:02.039Z,4294967296.00
2023-05-25T05:49:02.356Z,4294967296.00
2023-05-25T05:51:02.604Z,4294967296.00
2023-05-25T05:53:02.875Z,4294967296.00
2023-05-25T05:55:03.316Z,4294967296.00
2023-05-25T05:57:03.635Z,4294967296.00
2023-05-25T05:59:03.928Z,4294967296.00
2023-05-25T06:01:04.212Z,4294967296.00
2023-05-25T06:03:04.703Z,4294967296.00
2023-05-25T06:05:05.107Z,4294967296.00
2023-05-25T06:07:05.450Z,4294967296.00
2023-05-25T06:09:05.700Z,4294967296.00
2023-05-25T06:11:05.933Z,4294967296.00
2023-05-25T06:13:06.259Z,4294967296.00
2023-05-25T06:15:06.566Z,4294967296.00
2023-05-25T06:17:07.183Z,4294967296.00
2023-05-25T06:19:07.754Z,4294967296.00
2023-05-25T06:21:07.995Z,4294967296.00
2023-05-25T06:23:08.348Z,4294967296.00
2023-05-25T06:25:08.742Z,4294967296.00
2023-05-25T06:27:08.993Z,4294967296.00
2023-05-25T06:29:09.397Z,4294967296.00
2023-05-25T06:31:14.757Z,4294967296.00
2023-05-25T06:33:15.833Z,4294967296.00
2023-05-25T06:35:16.121Z,4294967296.00
2023-05-25T06:37:16.364Z,4294967296.00
2023-05-25T06:39:16.681Z,4294967296.00
2023-05-25T06:41:16.879Z,4294967296.00
2023-05-25T06:43:17.140Z,4294967296.00
2023-05-25T06:45:21.304Z,4294967296.00
2023-05-25T06:47:21.823Z,4294967296.00
2023-05-25T06:49:22.180Z,4294967296.00
2023-05-25T06:51:22.841Z,4294967296.00
2023-05-25T06:53:23.114Z,4294967296.00
2023-05-25T06:55:23.589Z,4294967296.00
2023-05-25T06:57:23.990Z,4294967296.00
2023-05-25T06:59:29.170Z,4294967296.00
2023-05-25T07:01:32.863Z,4294967296.00
2023-05-25T07:03:33.224Z,4294967296.00
2023-05-25T07:05:33.911Z,4294967296.00
2023-05-25T07:07:34.324Z,4294967296.00
2023-05-25T07:09:34.552Z,4294967296.00
2023-05-25T07:11:34.834Z,4294967296.00
2023-05-25T07:13:36.325Z,4294967296.00
2023-05-25T07:15:36.688Z,4294967296.00
2023-05-25T07:17:37.380Z,4294967296.00
2023-05-25T07:19:37.758Z,4294967296.00
2023-05-25T07:21:39.140Z,4294967296.00
2023-05-25T07:23:39.499Z,4294967296.00
2023-05-25T07:25:39.855Z,4294967296.00
2023-05-25T07:27:44.945Z,4294967296.00
2023-05-25T07:29:45.241Z,4294967296.00
2023-05-25T07:31:45.685Z,4294967296.00
2023-05-25T07:33:46.145Z,4294967296.00
2023-05-25T07:35:46.612Z,4294967296.00
2023-05-25T07:37:47.210Z,4294967296.00
2023-05-25T07:40:38.183Z,4294967296.00
2023-05-25T07:42:38.703Z,4294967296.00
2023-05-25T07:44:39.326Z,4294967296.00
2023-05-25T07:46:41.833Z,4294967296.00
2023-05-25T07:48:42.778Z,4294967296.00
2023-05-25T07:50:43.223Z,4294967296.00
2023-05-25T07:52:46.350Z,4294967296.00
2023-05-25T07:55:31.317Z,4294967296.00
2023-05-25T07:57:31.902Z,4294967296.00
2023-05-25T07:59:32.972Z,4294967296.00
2023-05-25T08:01:34.670Z,4294967296.00
2023-05-25T08:03:48.032Z,4294967296.00
2023-05-25T08:05:40.067Z,4294967296.00
2023-05-25T08:07:42.096Z,4294967296.00
2023-05-25T08:09:43.119Z,4294967296.00
2023-05-25T08:11:43.410Z,4294967296.00
2023-05-25T08:13:43.629Z,4294967296.00
2023-05-25T08:15:44.354Z,4294967296.00
2023-05-25T08:17:45.242Z,4294967296.00
2023-05-25T08:19:49.739Z,4294967296.00
2023-05-25T08:21:50.219Z,4294967296.00
2023-05-25T08:23:50.448Z,4294967296.00
2023-05-25T08:25:51.415Z,4294967296.00
2023-05-25T08:27:51.645Z,4294967296.00
2023-05-25T08:29:52.418Z,4294967296.00
2023-05-25T08:31:52.674Z,4294967296.00
2023-05-25T08:33:52.997Z,4294967296.00
2023-05-25T08:35:53.268Z,4294967296.00
2023-05-25T08:37:53.653Z,4294967296.00
2023-05-25T08:39:58.861Z,4294967296.00
2023-05-25T08:42:00.516Z,4294967296.00
2023-05-25T08:44:03.071Z,4294967296.00
2023-05-25T08:46:05.475Z,4294967296.00
2023-05-25T08:48:07.245Z,4294967296.00
2023-05-25T08:51:55.115Z,2160.00
2023-05-25T08:53:55.556Z,2068.00
2023-05-25T08:55:56.054Z,2140.00
2023-05-25T08:57:56.417Z,2164.00
2023-05-25T08:59:56.766Z,2256.00
2023-05-25T09:01:57.083Z,2084.00
2023-05-25T09:03:57.479Z,2144.00
2023-05-25T09:05:57.762Z,2168.00
2023-05-25T09:07:58.193Z,2080.00
2023-05-25T09:09:58.501Z,2080.00
2023-05-25T09:11:58.862Z,2192.00
2023-05-25T09:13:59.264Z,2232.00
2023-05-25T09:15:59.949Z,2300.00
2023-05-25T09:18:42.459Z,2200.00
2023-05-25T09:20:45.914Z,2300.00
2023-05-25T09:22:47.338Z,2240.00
2023-05-25T09:24:47.739Z,2288.00
2023-05-25T09:26:48.311Z,2332.00
2023-05-25T09:28:48.845Z,2136.00
2023-05-25T09:30:49.422Z,2348.00
2023-05-25T09:32:49.781Z,2176.00
2023-05-25T09:34:50.084Z,2332.00
2023-05-25T09:36:50.964Z,2360.00
2023-05-25T09:38:51.649Z,2260.00
2023-05-25T09:40:52.222Z,2336.00
2023-05-25T09:42:52.496Z,2348.00
2023-05-25T09:44:53.041Z,2300.00
2023-05-25T09:46:53.344Z,2328.00
2023-05-25T09:48:53.668Z,2416.00
2023-05-25T09:50:53.922Z,2344.00
2023-05-25T09:52:54.279Z,2304.00
2023-05-25T09:54:54.544Z,2332.00
2023-05-25T09:56:54.871Z,2308.00
2023-05-25T09:58:55.592Z,2368.00
2023-05-25T10:00:55.941Z,2340.00
2023-05-25T10:02:56.352Z,2532.00
2023-05-25T10:04:56.678Z,2484.00
2023-05-25T10:06:57.342Z,2604.00
2023-05-25T10:08:57.627Z,2388.00
2023-05-25T10:10:58.232Z,2444.00
2023-05-25T10:12:58.524Z,2460.00
2023-05-25T10:14:58.854Z,2456.00
2023-05-25T10:16:59.142Z,2512.00
2023-05-25T10:18:59.857Z,2684.00
2023-05-25T10:21:00.370Z,2600.00
2023-05-25T10:23:00.823Z,2608.00
2023-05-25T10:25:01.163Z,2828.00
2023-05-25T10:27:07.754Z,2652.00
2023-05-25T10:29:06.979Z,2712.00
2023-05-25T10:31:07.359Z,2816.00
2023-05-25T10:33:07.874Z,2736.00
2023-05-25T10:36:03.183Z,2860.00
2023-05-25T10:37:56.179Z,2992.00
2023-05-25T10:39:56.545Z,2908.00
2023-05-25T10:41:57.070Z,3064.00
2023-05-25T10:43:57.539Z,2852.00
2023-05-25T10:46:51.898Z,3008.00
2023-05-25T10:48:52.599Z,2956.00
2023-05-25T10:52:57.960Z,4294967296.00
2023-05-25T10:55:59.666Z,3092.00
2023-05-25T10:59:15.892Z,4294967296.00
2023-05-25T11:03:27.317Z,3168.00
2023-05-25T11:05:27.898Z,3140.00
2023-05-25T11:08:59.462Z,4294967296.00
2023-05-25T11:11:00.378Z,4294967296.00
2023-05-25T11:13:46.923Z,3240.00
2023-05-25T11:15:50.071Z,3232.00
2023-05-25T11:17:50.394Z,3364.00
2023-05-25T11:19:51.791Z,3392.00
2023-05-25T11:21:56.106Z,3192.00
2023-05-25T11:23:56.396Z,3196.00
2023-05-25T11:25:56.737Z,3440.00
2023-05-25T11:27:57.156Z,3328.00
2023-05-25T11:29:57.568Z,3240.00
2023-05-25T11:31:57.850Z,3228.00
2023-05-25T11:33:58.416Z,3484.00
2023-05-25T11:35:58.810Z,3288.00
2023-05-25T11:37:59.066Z,3380.00
2023-05-25T11:39:59.475Z,3392.00
2023-05-25T11:41:59.854Z,3568.00
2023-05-25T11:44:00.235Z,3504.00
2023-05-25T11:46:00.659Z,3688.00
2023-05-25T11:48:01.115Z,3508.00
2023-05-25T11:50:01.542Z,3468.00
2023-05-25T11:52:02.350Z,3712.00
2023-05-25T11:54:02.803Z,3612.00
2023-05-25T11:56:07.889Z,3560.00
2023-05-25T11:58:08.310Z,3592.00
2023-05-25T12:00:08.640Z,3752.00
2023-05-25T12:02:08.954Z,3652.00
2023-05-25T12:04:09.397Z,3824.00
2023-05-25T12:06:10.081Z,3752.00
2023-05-25T12:08:10.412Z,3792.00
2023-05-25T12:10:10.697Z,3824.00
2023-05-25T12:12:11.029Z,3992.00
2023-05-25T12:14:11.481Z,4068.00
2023-05-25T12:16:12.261Z,3848.00
2023-05-25T12:18:12.718Z,4140.00
2023-05-25T12:20:13.142Z,4048.00
2023-05-25T12:22:13.453Z,4264.00
2023-05-25T12:24:13.827Z,4288.00
2023-05-25T12:26:14.094Z,4104.00
2023-05-25T12:28:14.474Z,2828.00
2023-05-25T12:30:14.821Z,2640.00
2023-05-25T12:32:15.087Z,2872.00
2023-05-25T12:34:15.475Z,2872.00
2023-05-25T12:36:15.715Z,2692.00
2023-05-25T12:38:16.122Z,2768.00
2023-05-25T12:40:16.427Z,2916.00
2023-05-25T12:42:16.797Z,2888.00
2023-05-25T12:44:17.178Z,2836.00
2023-05-25T12:46:17.657Z,2708.00
2023-05-25T12:48:17.933Z,2808.00
2023-05-25T12:50:18.312Z,2932.00
2023-05-25T12:52:18.832Z,2916.00
2023-05-25T12:54:19.049Z,2956.00
2023-05-25T12:56:19.368Z,2880.00
2023-05-25T12:58:19.983Z,2728.00
2023-05-25T13:00:20.372Z,2728.00
2023-05-25T13:02:20.749Z,2928.00
2023-05-25T13:04:21.129Z,2724.00
2023-05-25T13:06:21.430Z,2940.00
2023-05-25T13:08:21.711Z,2980.00
2023-05-25T13:10:22.051Z,2880.00
2023-05-25T13:12:22.582Z,2768.00
2023-05-25T13:14:22.883Z,2832.00
2023-05-25T13:16:23.201Z,2780.00
2023-05-25T13:18:23.509Z,2908.00
2023-05-25T13:20:23.984Z,2880.00
2023-05-25T13:22:24.278Z,3064.00
2023-05-25T13:24:24.572Z,2876.00
2023-05-25T13:26:24.906Z,3072.00
2023-05-25T13:28:25.179Z,2944.00
2023-05-25T13:30:25.541Z,3084.00
2023-05-25T13:32:25.842Z,3088.00
2023-05-25T13:34:26.159Z,3208.00
2023-05-25T13:36:26.460Z,3036.00
2023-05-25T13:38:28.077Z,2996.00
2023-05-25T13:40:30.119Z,3056.00
2023-05-25T13:42:31.508Z,2984.00
2023-05-25T13:44:33.260Z,2952.00
2023-05-25T13:47:17.301Z,3092.00
2023-05-25T13:49:17.644Z,3100.00
2023-05-25T13:51:18.155Z,2996.00
2023-05-25T13:53:18.444Z,3188.00
2023-05-25T13:55:18.742Z,3204.00
2023-05-25T13:57:19.197Z,3044.00
2023-05-25T14:00:04.452Z,3116.00
2023-05-25T14:02:47.001Z,3128.00
2023-05-25T14:04:47.345Z,3236.00
2023-05-25T14:06:47.708Z,2992.00
2023-05-25T14:08:47.993Z,3068.00
2023-05-25T14:10:48.559Z,3280.00
2023-05-25T14:12:48.845Z,3316.00
2023-05-25T14:14:49.192Z,3304.00
2023-05-25T14:16:49.622Z,3192.00
2023-05-25T14:18:49.887Z,3300.00
2023-05-25T14:20:50.437Z,3364.00
2023-05-25T14:22:50.907Z,3208.00
2023-05-25T14:24:51.272Z,3200.00
2023-05-25T14:26:51.880Z,3228.00
2023-05-25T14:28:52.264Z,3436.00
2023-05-25T14:30:52.631Z,3416.00
2023-05-25T14:32:53.130Z,3432.00
2023-05-25T14:34:53.624Z,3464.00
2023-05-25T14:36:54.655Z,3704.00
2023-05-25T14:38:57.299Z,3596.00
2023-05-25T14:40:59.189Z,3336.00
2023-05-25T14:42:59.778Z,3412.00
2023-05-25T14:45:00.558Z,3340.00
2023-05-25T14:47:01.497Z,3164.00
2023-05-25T14:49:02.454Z,3328.00
2023-05-25T14:51:03.011Z,3292.00
2023-05-25T14:53:04.274Z,3296.00
2023-05-25T14:55:04.819Z,3384.00
2023-05-25T14:57:05.157Z,3380.00
2023-05-25T14:59:05.820Z,3244.00
2023-05-25T15:01:06.382Z,3216.00
2023-05-25T15:03:07.211Z,3208.00
2023-05-25T15:05:07.896Z,3240.00
2023-05-25T15:07:08.190Z,3388.00
2023-05-25T15:09:55.770Z,3368.00
2023-05-25T15:11:56.406Z,3348.00
2023-05-25T15:13:57.640Z,3364.00
2023-05-25T15:15:58.413Z,3488.00
2023-05-25T15:17:58.827Z,3268.00
2023-05-25T15:19:59.383Z,3392.00
2023-05-25T15:21:59.912Z,3496.00
2023-05-25T15:24:00.814Z,3612.00
2023-05-25T15:26:01.506Z,3488.00
2023-05-25T15:28:04.844Z,3640.00
2023-05-25T15:30:05.120Z,3416.00
2023-05-25T15:32:06.559Z,3532.00
2023-05-25T15:34:11.722Z,3492.00
2023-05-25T15:36:12.159Z,3520.00
2023-05-25T15:38:12.990Z,3376.00
2023-05-25T15:40:13.910Z,3584.00
2023-05-25T15:42:57.944Z,3416.00
2023-05-25T15:44:58.509Z,3516.00
2023-05-25T15:46:58.808Z,3364.00
2023-05-25T15:49:00.136Z,3376.00
2023-05-25T15:51:00.527Z,3176.00
2023-05-25T15:53:00.843Z,3164.00
2023-05-25T15:55:01.137Z,3256.00
2023-05-25T15:57:01.455Z,3152.00
2023-05-25T15:59:01.988Z,3096.00
2023-05-25T16:01:02.265Z,3156.00
2023-05-25T16:03:02.616Z,3284.00
2023-05-25T16:05:03.614Z,3180.00
2023-05-25T16:07:03.908Z,3140.00
2023-05-25T16:09:04.498Z,3292.00
2023-05-25T16:11:04.916Z,3008.00
2023-05-25T16:13:05.241Z,2996.00
2023-05-25T16:15:05.558Z,3228.00
2023-05-25T16:17:05.810Z,3108.00
2023-05-25T16:19:06.187Z,2944.00
2023-05-25T16:21:06.517Z,2976.00
2023-05-25T16:23:06.872Z,2932.00
2023-05-25T16:25:07.193Z,3024.00
2023-05-25T16:27:07.629Z,2772.00
2023-05-25T16:29:08.180Z,2960.00
2023-05-25T16:31:08.581Z,2748.00
2023-05-25T16:33:08.958Z,2888.00
2023-05-25T16:35:09.275Z,2648.00
2023-05-25T16:37:09.668Z,2824.00
2023-05-25T16:39:09.942Z,2760.00
2023-05-25T16:41:10.376Z,2568.00
2023-05-25T16:43:10.840Z,2528.00
2023-05-25T16:45:11.108Z,2692.00
2023-05-25T16:47:11.479Z,2504.00
2023-05-25T16:49:11.896Z,2624.00
2023-05-25T16:52:07.305Z,4294967296.00
2023-05-25T16:56:22.799Z,2272.00
2023-05-25T16:58:23.109Z,2092.00
2023-05-25T17:00:23.395Z,2136.00
2023-05-25T17:02:23.795Z,1528.00
2023-05-25T17:04:24.115Z,1296.00
2023-05-25T17:06:24.418Z,1272.00
2023-05-25T17:08:24.684Z,1248.00
2023-05-25T17:10:24.987Z,1092.00
2023-05-25T17:12:25.343Z,1012.00
2023-05-25T17:14:25.633Z,1036.00
2023-05-25T17:16:26.002Z,1020.00
2023-05-25T17:18:26.299Z,972.00
2023-05-25T17:20:26.589Z,948.00
2023-05-25T17:22:26.890Z,944.00
2023-05-25T17:24:27.198Z,920.00
2023-05-25T17:26:27.549Z,968.00
2023-05-25T17:28:27.833Z,856.00
2023-05-25T17:30:28.362Z,884.00
2023-05-25T17:32:28.905Z,900.00
2023-05-25T17:34:29.572Z,928.00
2023-05-25T17:36:29.907Z,920.00
2023-05-25T17:38:30.185Z,880.00
2023-05-25T17:40:30.504Z,848.00
2023-05-25T17:42:30.827Z,888.00
2023-05-25T17:44:31.087Z,820.00
2023-05-25T17:46:31.447Z,824.00
2023-05-25T17:48:31.772Z,852.00
2023-05-25T17:50:32.095Z,1764.00
2023-05-25T17:52:32.484Z,1708.00
2023-05-25T17:54:32.803Z,1644.00
2023-05-25T17:56:33.100Z,1588.00
2023-05-25T17:58:33.517Z,1664.00
2023-05-25T18:00:33.949Z,1588.00
2023-05-25T18:02:34.403Z,1500.00
2023-05-25T18:04:34.862Z,1460.00
2023-05-25T18:06:38.385Z,1476.00
2023-05-25T18:09:31.313Z,1444.00
2023-05-25T18:11:32.651Z,1412.00
2023-05-25T18:32:48.762Z,916.00
2023-05-25T18:38:21.366Z,796.00
2023-05-25T18:46:40.499Z,620.00
2023-05-25T18:49:24.015Z,560.00
2023-05-25T18:51:24.588Z,512.00
2023-05-25T18:53:26.646Z,484.00
2023-05-25T18:55:27.076Z,416.00
2023-05-25T18:57:27.892Z,400.00
2023-05-25T18:59:29.128Z,368.00
2023-05-25T19:01:29.616Z,320.00
2023-05-25T19:03:30.523Z,276.00
2023-05-25T19:05:31.196Z,248.00
2023-05-25T19:08:24.027Z,212.00
2023-05-25T19:11:20.235Z,168.00
2023-05-25T19:13:21.029Z,140.00
2023-05-25T19:15:21.392Z,112.00
2023-05-25T19:17:24.853Z,104.00
2023-05-25T19:19:25.191Z,88.00
2023-05-25T19:21:25.559Z,64.00
2023-05-25T19:23:25.817Z,52.00
2023-05-25T19:25:26.112Z,44.00
2023-05-25T19:27:26.433Z,36.00
2023-05-25T19:29:26.728Z,28.00
2023-05-25T19:31:27.097Z,20.00
2023-05-25T19:33:27.433Z,16.00
2023-05-25T19:35:27.748Z,16.00
2023-05-25T19:37:28.328Z,8.00
2023-05-25T19:39:28.821Z,8.00
2023-05-25T19:41:29.204Z,8.00
2023-05-25T19:44:46.462Z,4.00
2023-05-25T19:46:46.969Z,4.00
2023-05-25T19:48:47.482Z,0.00
2023-05-25T19:50:47.782Z,4.00
2023-05-25T19:52:48.376Z,0.00
2023-05-25T19:55:42.904Z,4.00
2023-05-25T19:57:44.756Z,4.00
2023-05-25T19:59:45.488Z,0.00
2023-05-25T20:01:45.974Z,0.00
2023-05-25T20:03:46.675Z,0.00
2023-05-25T20:05:47.236Z,0.00
2023-05-25T20:07:48.047Z,0.00
2023-05-25T20:09:48.401Z,0.00
2023-05-25T20:11:48.893Z,0.00
2023-05-25T20:13:51.021Z,0.00
2023-05-25T20:15:51.376Z,0.00
2023-05-25T20:17:52.001Z,0.00
2023-05-25T20:19:52.553Z,0.00
2023-05-25T20:21:53.202Z,0.00
2023-05-25T20:23:53.667Z,0.00
2023-05-25T20:25:54.229Z,0.00
2023-05-25T20:27:54.560Z,0.00
2023-05-25T20:29:55.041Z,0.00
2023-05-25T20:31:55.408Z,0.00
2023-05-25T20:33:56.381Z,0.00
2023-05-25T20:35:59.126Z,0.00
2023-05-25T20:37:59.770Z,0.00
2023-05-25T20:40:01.729Z,0.00
2023-05-25T20:42:03.858Z,0.00
2023-05-25T20:44:04.626Z,0.00
2023-05-25T20:46:06.717Z,0.00
2023-05-25T20:48:08.013Z,0.00
2023-05-25T20:50:09.348Z,0.00
2023-05-25T20:52:10.330Z,0.00
2023-05-25T20:54:10.676Z,0.00
2023-05-25T20:56:11.108Z,0.00
2023-05-25T20:58:11.411Z,0.00
2023-05-25T21:00:11.936Z,0.00
2023-05-25T21:02:12.220Z,0.00
2023-05-25T21:04:12.524Z,0.00
2023-05-25T21:06:16.143Z,0.00
2023-05-25T21:08:16.627Z,0.00
2023-05-25T21:10:17.204Z,0.00
2023-05-25T21:12:17.619Z,0.00
2023-05-25T21:14:17.904Z,0.00
2023-05-25T21:16:18.256Z,0.00
2023-05-25T21:18:18.703Z,0.00
2023-05-25T21:20:19.111Z,0.00
2023-05-25T21:22:19.492Z,0.00
2023-05-25T21:24:19.755Z,0.00
2023-05-25T21:26:20.145Z,0.00
2023-05-25T21:28:20.418Z,0.00
2023-05-25T21:30:20.725Z,0.00
2023-05-25T21:32:21.043Z,0.00
2023-05-25T21:34:21.338Z,0.00
2023-05-25T21:36:21.612Z,0.00
2023-05-25T21:38:21.971Z,0.00
2023-05-25T21:40:22.231Z,0.00
2023-05-25T21:42:22.562Z,0.00
2023-05-25T21:44:22.852Z,0.00
2023-05-25T21:46:23.171Z,0.00
2023-05-25T21:48:23.507Z,0.00
2023-05-25T21:50:24.006Z,0.00
2023-05-25T21:52:24.367Z,0.00
2023-05-25T21:54:25.473Z,0.00
2023-05-25T21:56:26.086Z,0.00
2023-05-25T21:58:26.523Z,0.00
2023-05-25T22:00:26.850Z,0.00
2023-05-25T22:02:27.257Z,0.00
2023-05-25T22:04:27.620Z,0.00
2023-05-25T22:06:28.003Z,0.00
2023-05-25T22:08:28.356Z,0.00
2023-05-25T22:10:28.604Z,0.00
2023-05-25T22:12:28.907Z,0.00
2023-05-25T22:14:29.226Z,0.00
2023-05-25T22:16:29.605Z,0.00
2023-05-25T22:18:29.984Z,0.00
2023-05-25T22:20:30.274Z,0.00
2023-05-25T22:22:30.572Z,0.00
2023-05-25T22:24:30.907Z,0.00
2023-05-25T22:26:31.693Z,0.00
2023-05-25T22:28:31.963Z,0.00
2023-05-25T22:30:32.309Z,0.00
2023-05-25T22:32:32.640Z,0.00
2023-05-25T22:34:33.014Z,0.00
2023-05-25T22:36:33.385Z,0.00
2023-05-25T22:38:33.956Z,0.00
2023-05-25T22:40:34.295Z,0.00
2023-05-25T22:42:34.688Z,0.00
2023-05-25T22:44:34.988Z,0.00
2023-05-25T22:46:35.281Z,0.00
2023-05-25T22:48:35.677Z,0.00
2023-05-25T22:50:35.987Z,0.00
2023-05-25T22:52:36.284Z,0.00
2023-05-25T22:54:36.685Z,0.00
2023-05-25T22:56:36.963Z,0.00
2023-05-25T22:58:37.476Z,0.00
2023-05-25T23:00:37.815Z,0.00
2023-05-25T23:02:38.203Z,0.00
2023-05-25T23:04:39.056Z,0.00
2023-05-25T23:06:39.402Z,0.00
2023-05-25T23:08:39.801Z,0.00
2023-05-25T23:10:40.064Z,0.00
2023-05-25T23:12:40.489Z,0.00
2023-05-25T23:14:40.768Z,0.00
2023-05-25T23:16:41.191Z,0.00
2023-05-25T23:18:42.017Z,0.00
2023-05-25T23:20:42.435Z,0.00
2023-05-25T23:22:42.749Z,0.00
2023-05-25T23:24:43.111Z,0.00
2023-05-25T23:26:43.409Z,0.00
2023-05-25T23:28:43.742Z,0.00
2023-05-25T23:30:44.444Z,0.00
2023-05-25T23:32:44.893Z,0.00
2023-05-25T23:34:45.285Z,0.00
2023-05-25T23:36:45.568Z,0.00
2023-05-25T23:38:45.866Z,0.00
2023-05-25T23:40:46.127Z,0.00
2023-05-25T23:42:46.531Z,0.00
2023-05-25T23:44:46.815Z,0.00
2023-05-25T23:46:47.216Z,0.00
2023-05-25T23:48:47.544Z,0.00
2023-05-25T23:50:48.068Z,0.00
2023-05-25T23:52:48.454Z,0.00
2023-05-25T23:54:48.772Z,0.00
2023-05-25T23:56:49.084Z,0.00
2023-05-25T23:58:49.411Z,0.00
